createdAt,value
2023-04-18T00:01:55.734Z,56.40
2023-04-18T00:04:23.760Z,56.22
2023-04-18T00:06:51.978Z,56.42
2023-04-18T00:09:19.894Z,56.28
2023-04-18T00:11:47.863Z,56.11
2023-04-18T00:14:17.151Z,55.79
2023-04-18T00:16:45.965Z,56.25
2023-04-18T00:19:14.350Z,56.10
2023-04-18T00:21:44.721Z,56.04
2023-04-18T00:24:13.005Z,56.09
2023-04-18T00:26:41.166Z,55.78
2023-04-18T00:29:09.050Z,55.93
2023-04-18T00:31:38.449Z,55.71
2023-04-18T00:34:06.294Z,55.80
2023-04-18T00:36:34.180Z,55.93
2023-04-18T00:39:02.100Z,56.01
2023-04-18T00:41:30.031Z,55.95
2023-04-18T00:43:57.944Z,55.89
2023-04-18T00:46:25.832Z,55.97
2023-04-18T00:48:55.096Z,56.20
2023-04-18T00:51:22.954Z,56.14
2023-04-18T00:53:50.804Z,56.13
2023-04-18T00:56:18.766Z,56.05
2023-04-18T00:58:46.632Z,56.26
2023-04-18T01:01:14.522Z,56.10
2023-04-18T01:03:42.597Z,56.26
2023-04-18T01:06:12.121Z,56.25
2023-04-18T01:08:39.984Z,56.41
2023-04-18T01:11:07.860Z,55.88
2023-04-18T01:13:35.730Z,56.16
2023-04-18T01:16:03.655Z,55.81
2023-04-18T01:18:31.627Z,56.01
2023-04-18T01:21:00.575Z,55.75
2023-04-18T01:23:30.592Z,56.08
2023-04-18T01:25:59.928Z,55.93
2023-04-18T01:28:27.904Z,56.01
2023-04-18T01:30:55.890Z,55.92
2023-04-18T01:33:23.777Z,56.10
2023-04-18T01:35:51.644Z,56.38
2023-04-18T01:38:19.512Z,56.49
2023-04-18T01:40:47.554Z,56.82
2023-04-18T01:43:16.841Z,56.95
2023-04-18T01:45:44.771Z,57.16
2023-04-18T01:48:12.696Z,57.02
2023-04-18T01:50:40.663Z,57.13
2023-04-18T01:53:08.553Z,57.05
2023-04-18T01:55:36.458Z,57.20
2023-04-18T01:58:04.415Z,56.99
2023-04-18T02:00:33.764Z,57.34
2023-04-18T02:03:01.894Z,56.90
2023-04-18T02:05:30.072Z,56.87
2023-04-18T02:07:57.941Z,56.85
2023-04-18T02:10:26.011Z,57.12
2023-04-18T02:12:54.000Z,57.00
2023-04-18T02:15:22.256Z,56.87
2023-04-18T02:17:51.610Z,56.82
2023-04-18T02:20:19.495Z,56.88
2023-04-18T02:22:47.901Z,56.70
2023-04-18T02:25:15.758Z,56.85
2023-04-18T02:27:43.645Z,56.88
2023-04-18T02:30:12.159Z,56.76
2023-04-18T02:32:40.135Z,56.65
2023-04-18T02:35:09.956Z,56.51
2023-04-18T02:37:37.846Z,56.53
2023-04-18T02:40:07.273Z,56.38
2023-04-18T02:42:35.188Z,56.64
2023-04-18T02:45:03.084Z,56.47
2023-04-18T02:47:35.392Z,56.48
2023-04-18T02:50:13.217Z,56.41
2023-04-18T02:52:41.106Z,56.59
2023-04-18T02:55:09.674Z,56.50
2023-04-18T02:57:37.536Z,56.41
2023-04-18T03:00:07.203Z,56.59
2023-04-18T03:02:35.270Z,56.33
2023-04-18T03:05:03.426Z,56.52
2023-04-18T03:07:32.777Z,56.55
2023-04-18T03:10:00.970Z,56.34
2023-04-18T03:12:28.794Z,56.32
2023-04-18T03:14:56.679Z,56.35
2023-04-18T03:17:24.573Z,56.45
2023-04-18T03:19:52.476Z,56.43
2023-04-18T03:22:20.419Z,56.34
2023-04-18T03:24:49.652Z,56.26
2023-04-18T03:27:17.605Z,56.34
2023-04-18T03:29:45.552Z,56.18
2023-04-18T03:32:13.427Z,56.43
2023-04-18T03:34:41.345Z,56.47
2023-04-18T03:37:09.276Z,56.37
2023-04-18T03:39:37.144Z,56.45
2023-04-18T03:42:06.518Z,56.54
2023-04-18T03:44:34.439Z,56.38
2023-04-18T03:47:02.396Z,56.51
2023-04-18T03:49:30.256Z,56.57
2023-04-18T03:51:58.144Z,56.39
2023-04-18T03:54:26.011Z,56.37
2023-04-18T03:56:53.869Z,56.51
2023-04-18T03:59:23.133Z,56.28
2023-04-18T04:01:51.045Z,56.51
2023-04-18T04:04:19.195Z,56.25
2023-04-18T04:06:47.319Z,56.22
2023-04-18T04:09:15.210Z,56.34
2023-04-18T04:11:43.420Z,56.25
2023-04-18T04:14:11.382Z,56.29
2023-04-18T04:16:40.694Z,56.23
2023-04-18T04:19:08.666Z,56.32
2023-04-18T04:21:36.591Z,56.61
2023-04-18T04:24:04.785Z,56.80
2023-04-18T04:26:32.638Z,56.83
2023-04-18T04:29:00.495Z,56.87
2023-04-18T04:31:28.807Z,56.96
2023-04-18T04:33:58.061Z,56.74
2023-04-18T04:36:27.279Z,56.76
2023-04-18T04:38:55.207Z,56.80
2023-04-18T04:41:24.629Z,56.69
2023-04-18T04:43:53.170Z,56.59
2023-04-18T04:46:21.201Z,56.69
2023-04-18T04:48:49.754Z,56.77
2023-04-18T04:51:18.986Z,56.69
2023-04-18T04:53:46.893Z,56.60
2023-04-18T04:56:14.790Z,56.46
2023-04-18T04:58:42.698Z,56.50
2023-04-18T05:01:11.588Z,56.50
2023-04-18T05:03:39.629Z,56.43
2023-04-18T05:06:07.797Z,56.26
2023-04-18T05:08:37.032Z,56.42
2023-04-18T05:11:04.981Z,56.24
2023-04-18T05:13:32.889Z,56.36
2023-04-18T05:16:00.745Z,56.17
2023-04-18T05:18:28.626Z,56.15
2023-04-18T05:20:56.961Z,55.98
2023-04-18T05:23:24.960Z,55.97
2023-04-18T05:25:54.212Z,56.12
2023-04-18T05:28:22.828Z,55.87
2023-04-18T05:30:51.097Z,55.73
2023-04-18T05:33:19.096Z,55.59
2023-04-18T05:35:47.077Z,55.79
2023-04-18T05:38:15.001Z,55.62
2023-04-18T05:40:43.575Z,55.70
2023-04-18T05:43:12.950Z,55.62
2023-04-18T05:45:40.855Z,55.69
2023-04-18T05:48:08.793Z,55.72
2023-04-18T05:50:36.710Z,55.71
2023-04-18T05:53:04.578Z,55.84
2023-04-18T05:55:32.558Z,55.78
2023-04-18T05:58:00.485Z,55.84
2023-04-18T06:00:29.827Z,55.78
2023-04-18T06:02:57.860Z,56.05
2023-04-18T06:05:26.231Z,56.02
2023-04-18T06:07:54.293Z,56.00
2023-04-18T06:10:22.264Z,55.96
2023-04-18T06:12:50.121Z,56.03
2023-04-18T06:15:18.087Z,56.15
2023-04-18T06:17:47.425Z,56.19
2023-04-18T06:20:15.488Z,56.35
2023-04-18T06:22:43.478Z,56.19
2023-04-18T06:25:11.469Z,56.36
2023-04-18T06:27:39.524Z,56.14
2023-04-18T06:30:08.298Z,56.26
2023-04-18T06:32:36.522Z,56.22
2023-04-18T06:35:06.716Z,56.28
2023-04-18T06:37:34.574Z,56.31
2023-04-18T06:40:02.606Z,56.00
2023-04-18T06:42:30.453Z,55.98
2023-04-18T06:44:58.377Z,55.85
2023-04-18T06:47:26.626Z,55.54
2023-04-18T06:49:54.613Z,55.60
2023-04-18T06:52:23.965Z,55.24
2023-04-18T06:54:52.157Z,55.29
2023-04-18T06:57:20.036Z,55.19
2023-04-18T06:59:49.070Z,54.99
2023-04-18T07:02:16.998Z,54.92
2023-04-18T07:04:45.031Z,54.95
2023-04-18T07:07:13.155Z,54.69
2023-04-18T07:09:42.446Z,54.63
2023-04-18T07:12:10.649Z,54.71
2023-04-18T07:14:39.577Z,54.55
2023-04-18T07:17:07.624Z,54.60
2023-04-18T07:19:35.602Z,54.34
2023-04-18T07:22:03.493Z,54.09
2023-04-18T07:24:31.545Z,54.14
2023-04-18T07:27:01.520Z,53.77
2023-04-18T07:29:29.451Z,53.97
2023-04-18T07:31:58.038Z,54.02
2023-04-18T07:34:26.798Z,53.88
2023-04-18T07:36:55.876Z,53.75
2023-04-18T07:39:23.816Z,53.51
2023-04-18T07:41:51.856Z,53.34
2023-04-18T07:44:22.005Z,52.94
2023-04-18T07:46:50.549Z,52.47
2023-04-18T07:49:18.844Z,52.50
2023-04-18T07:51:46.958Z,52.52
2023-04-18T07:54:15.423Z,51.88
2023-04-18T07:56:43.348Z,51.73
2023-04-18T07:59:11.445Z,51.80
2023-04-18T08:01:40.983Z,51.89
2023-04-18T08:04:08.988Z,51.46
2023-04-18T08:06:37.273Z,51.67
2023-04-18T08:09:06.066Z,51.47
2023-04-18T08:11:34.123Z,51.23
2023-04-18T08:14:02.044Z,51.32
2023-04-18T08:16:29.998Z,51.31
2023-04-18T08:18:59.288Z,51.21
2023-04-18T08:21:27.470Z,51.02
2023-04-18T08:23:55.655Z,51.29
2023-04-18T08:26:23.610Z,50.77
2023-04-18T08:28:51.749Z,50.71
2023-04-18T08:33:47.948Z,50.54
2023-04-18T08:36:17.310Z,50.30
2023-04-18T08:38:45.188Z,50.65
2023-04-18T08:41:13.174Z,50.54
2023-04-18T08:43:41.215Z,50.86
2023-04-18T08:46:09.203Z,50.27
2023-04-18T08:48:37.202Z,50.27
2023-04-18T08:51:05.609Z,50.17
2023-04-18T08:53:35.267Z,49.95
2023-04-18T08:56:05.658Z,49.11
2023-04-18T08:58:34.982Z,49.32
2023-04-18T09:01:03.096Z,49.39
2023-04-18T09:03:39.697Z,49.20
2023-04-18T09:06:09.450Z,49.26
2023-04-18T09:08:39.225Z,50.06
2023-04-18T09:11:23.979Z,49.83
2023-04-18T09:13:51.976Z,49.87
2023-04-18T09:16:20.802Z,49.91
2023-04-18T09:19:12.336Z,49.89
2023-04-18T09:21:40.899Z,50.54
2023-04-18T09:24:21.117Z,50.31
2023-04-18T09:26:50.822Z,49.95
2023-04-18T09:29:22.418Z,49.65
2023-04-18T09:31:57.691Z,49.58
2023-04-18T09:34:26.329Z,49.41
2023-04-18T09:37:08.171Z,49.61
2023-04-18T09:39:38.506Z,49.54
2023-04-18T09:42:07.146Z,49.68
2023-04-18T09:44:35.059Z,49.19
2023-04-18T09:47:03.120Z,49.31
2023-04-18T09:49:31.040Z,48.86
2023-04-18T09:51:59.046Z,48.69
2023-04-18T09:54:27.400Z,48.41
2023-04-18T09:56:57.075Z,48.56
2023-04-18T09:59:36.564Z,48.64
2023-04-18T10:02:04.880Z,48.82
2023-04-18T10:04:35.744Z,48.28
2023-04-18T10:07:04.005Z,48.36
2023-04-18T10:09:33.395Z,47.64
2023-04-18T10:12:03.486Z,47.17
2023-04-18T10:14:32.514Z,46.84
2023-04-18T10:17:01.100Z,47.17
2023-04-18T10:19:30.185Z,46.75
2023-04-18T10:21:59.153Z,46.50
2023-04-18T10:24:48.507Z,46.20
2023-04-18T10:27:18.535Z,46.38
2023-04-18T10:29:50.729Z,45.86
2023-04-18T10:32:19.130Z,45.54
2023-04-18T10:34:47.814Z,45.51
2023-04-18T10:37:17.759Z,45.14
2023-04-18T10:39:50.665Z,45.35
2023-04-18T10:42:20.039Z,44.82
2023-04-18T10:45:18.494Z,44.43
2023-04-18T10:47:46.448Z,44.57
2023-04-18T10:50:14.844Z,44.84
2023-04-18T10:52:45.713Z,44.36
2023-04-18T10:55:20.633Z,44.04
2023-04-18T10:57:50.703Z,43.79
2023-04-18T11:00:21.794Z,44.07
2023-04-18T11:02:52.227Z,44.03
2023-04-18T11:05:21.839Z,44.01
2023-04-18T11:07:50.312Z,43.65
2023-04-18T11:10:19.009Z,44.17
2023-04-18T11:12:46.982Z,43.85
2023-04-18T11:15:17.769Z,43.85
2023-04-18T11:17:45.795Z,43.28
2023-04-18T11:20:14.956Z,43.46
2023-04-18T11:22:47.606Z,44.09
2023-04-18T11:25:15.761Z,44.02
2023-04-18T11:27:45.116Z,44.01
2023-04-18T11:30:13.850Z,43.95
2023-04-18T11:32:47.618Z,43.31
2023-04-18T11:35:17.733Z,42.29
2023-04-18T11:37:45.997Z,41.39
2023-04-18T11:40:14.615Z,41.17
2023-04-18T11:42:42.550Z,39.79
2023-04-18T11:45:12.443Z,39.16
2023-04-18T11:47:41.946Z,38.32
2023-04-18T11:50:12.764Z,38.36
2023-04-18T11:52:42.947Z,38.33
2023-04-18T11:55:17.893Z,38.07
2023-04-18T11:57:56.303Z,37.49
2023-04-18T12:00:33.667Z,37.08
2023-04-18T12:03:02.996Z,37.39
2023-04-18T12:05:33.103Z,36.94
2023-04-18T12:08:11.502Z,36.46
2023-04-18T12:10:39.778Z,36.89
2023-04-18T12:13:09.253Z,36.66
2023-04-18T12:15:39.421Z,35.34
2023-04-18T12:18:09.773Z,35.25
2023-04-18T12:20:46.007Z,35.20
2023-04-18T12:23:35.576Z,34.41
2023-04-18T12:26:04.351Z,34.56
2023-04-18T12:28:32.226Z,34.28
2023-04-18T12:31:00.915Z,33.42
2023-04-18T12:33:28.978Z,32.59
2023-04-18T12:35:58.215Z,33.47
2023-04-18T12:38:27.076Z,32.48
2023-04-18T12:40:54.994Z,32.80
2023-04-18T12:43:23.076Z,32.61
2023-04-18T12:45:51.109Z,32.53
2023-04-18T12:48:19.326Z,32.48
2023-04-18T12:50:47.282Z,31.14
2023-04-18T12:53:16.782Z,31.10
2023-04-18T12:55:44.759Z,31.31
2023-04-18T12:58:15.178Z,31.10
2023-04-18T13:00:43.151Z,30.59
2023-04-18T13:03:13.173Z,30.52
2023-04-18T13:05:41.573Z,30.49
2023-04-18T13:08:16.751Z,30.04
2023-04-18T13:10:47.678Z,29.74
2023-04-18T13:13:15.789Z,28.55
2023-04-18T13:15:43.831Z,28.44
2023-04-18T13:18:11.724Z,28.69
2023-04-18T13:20:39.635Z,28.67
2023-04-18T13:23:07.582Z,29.31
2023-04-18T13:25:35.576Z,29.41
2023-04-18T13:28:05.853Z,29.14
2023-04-18T13:30:38.453Z,28.54
2023-04-18T13:33:06.937Z,27.92
2023-04-18T13:35:35.381Z,27.72
2023-04-18T13:38:04.166Z,28.17
2023-04-18T13:40:33.496Z,28.06
2023-04-18T13:43:04.211Z,27.72
2023-04-18T13:45:34.013Z,28.10
2023-04-18T13:48:06.189Z,28.67
2023-04-18T13:50:37.344Z,28.40
2023-04-18T13:53:08.071Z,27.70
2023-04-18T13:55:37.108Z,27.08
2023-04-18T13:58:05.049Z,27.13
2023-04-18T14:00:34.418Z,27.44
2023-04-18T14:03:02.591Z,27.96
2023-04-18T14:05:31.098Z,28.00
2023-04-18T14:08:04.132Z,28.34
2023-04-18T14:10:32.411Z,27.88
2023-04-18T14:13:00.749Z,26.79
2023-04-18T14:15:30.795Z,27.14
2023-04-18T14:18:01.078Z,26.34
2023-04-18T14:20:34.296Z,26.09
2023-04-18T14:23:02.375Z,26.42
2023-04-18T14:25:30.590Z,26.94
2023-04-18T14:28:05.722Z,26.43
2023-04-18T14:30:33.760Z,25.91
2023-04-18T14:33:03.749Z,26.37
2023-04-18T14:35:31.783Z,26.38
2023-04-18T14:37:59.772Z,27.44
2023-04-18T14:40:27.856Z,26.66
2023-04-18T14:42:57.872Z,26.84
2023-04-18T14:45:26.177Z,25.93
2023-04-18T14:47:55.694Z,26.66
2023-04-18T14:50:25.506Z,26.06
2023-04-18T14:52:53.435Z,26.91
2023-04-18T14:55:21.342Z,26.93
2023-04-18T14:57:49.419Z,26.11
2023-04-18T15:00:18.548Z,25.94
2023-04-18T15:02:46.634Z,26.30
2023-04-18T15:05:15.261Z,26.12
2023-04-18T15:07:45.178Z,26.25
2023-04-18T15:10:15.258Z,26.91
2023-04-18T15:12:43.444Z,26.46
2023-04-18T15:15:12.251Z,25.95
2023-04-18T15:17:40.530Z,25.95
2023-04-18T15:20:09.930Z,25.58
2023-04-18T15:22:38.076Z,26.06
2023-04-18T15:25:08.625Z,26.16
2023-04-18T15:27:39.619Z,26.68
2023-04-18T15:30:11.105Z,26.18
2023-04-18T15:32:40.297Z,26.55
2023-04-18T15:35:09.343Z,26.30
2023-04-18T15:37:37.954Z,26.42
2023-04-18T15:40:11.242Z,25.34
2023-04-18T15:42:59.924Z,25.72
2023-04-18T15:45:28.060Z,25.70
2023-04-18T15:47:56.077Z,25.28
2023-04-18T15:50:24.639Z,25.61
2023-04-18T15:52:52.979Z,25.48
2023-04-18T15:55:22.424Z,24.73
2023-04-18T15:57:50.399Z,25.56
2023-04-18T16:00:19.829Z,25.91
2023-04-18T16:02:47.969Z,26.47
2023-04-18T16:05:16.145Z,27.11
2023-04-18T16:07:44.454Z,26.87
2023-04-18T16:10:12.952Z,27.22
2023-04-18T16:12:42.460Z,26.55
2023-04-18T16:15:11.225Z,26.46
2023-04-18T16:17:39.216Z,26.73
2023-04-18T16:20:09.296Z,27.64
2023-04-18T16:22:37.431Z,27.48
2023-04-18T16:25:06.282Z,27.95
2023-04-18T16:27:34.267Z,28.41
2023-04-18T16:30:05.765Z,28.54
2023-04-18T16:32:34.060Z,28.96
2023-04-18T16:35:02.116Z,29.56
2023-04-18T16:37:30.149Z,30.25
2023-04-18T16:39:58.160Z,30.60
2023-04-18T16:42:26.263Z,31.03
2023-04-18T16:44:57.337Z,30.89
2023-04-18T16:47:26.872Z,31.04
2023-04-18T16:49:55.784Z,31.41
2023-04-18T16:52:23.697Z,31.72
2023-04-18T16:54:52.743Z,31.24
2023-04-18T16:57:20.804Z,31.61
2023-04-18T16:59:48.720Z,31.29
2023-04-18T17:02:18.181Z,31.71
2023-04-18T17:04:47.562Z,32.22
2023-04-18T17:07:15.720Z,32.55
2023-04-18T17:09:43.604Z,32.72
2023-04-18T17:12:11.607Z,32.77
2023-04-18T17:14:39.607Z,33.11
2023-04-18T17:17:07.559Z,32.98
2023-04-18T17:19:35.472Z,33.27
2023-04-18T17:22:04.811Z,33.33
2023-04-18T17:24:32.695Z,33.42
2023-04-18T17:27:01.262Z,33.51
2023-04-18T17:29:29.192Z,33.38
2023-04-18T17:31:57.091Z,33.25
2023-04-18T17:34:25.037Z,33.35
2023-04-18T17:36:52.909Z,33.20
2023-04-18T17:39:25.327Z,33.76
2023-04-18T17:41:53.344Z,33.64
2023-04-18T17:44:21.382Z,34.11
2023-04-18T17:46:50.569Z,34.12
2023-04-18T17:49:18.644Z,34.03
2023-04-18T17:51:46.612Z,34.24
2023-04-18T17:54:14.668Z,34.22
2023-04-18T17:56:44.196Z,34.13
2023-04-18T17:59:12.238Z,34.43
2023-04-18T18:01:41.235Z,34.58
2023-04-18T18:04:09.260Z,34.43
2023-04-18T18:06:37.305Z,34.74
2023-04-18T18:09:05.294Z,35.01
2023-04-18T18:11:33.395Z,35.24
2023-04-18T18:14:02.695Z,34.59
2023-04-18T18:16:30.854Z,34.28
2023-04-18T18:18:59.730Z,34.94
2023-04-18T18:21:28.784Z,34.92
2023-04-18T18:23:56.795Z,34.99
2023-04-18T18:26:26.441Z,35.63
2023-04-18T18:28:54.551Z,35.41
2023-04-18T18:31:25.000Z,35.79
2023-04-18T18:33:53.006Z,35.73
2023-04-18T18:36:21.142Z,35.85
2023-04-18T18:38:49.048Z,35.71
2023-04-18T18:41:17.068Z,35.68
2023-04-18T18:43:45.020Z,36.30
2023-04-18T18:46:13.091Z,36.23
2023-04-18T18:48:44.995Z,35.62
2023-04-18T18:51:22.656Z,35.45
2023-04-18T18:53:54.706Z,35.67
2023-04-18T18:56:26.294Z,35.84
2023-04-18T18:58:57.584Z,35.64
2023-04-18T19:01:30.852Z,35.67
2023-04-18T19:04:04.631Z,35.97
2023-04-18T19:06:39.082Z,35.90
2023-04-18T19:09:12.464Z,35.47
2023-04-18T19:11:42.028Z,35.63
2023-04-18T19:14:13.350Z,35.98
2023-04-18T19:17:01.859Z,36.00
2023-04-18T19:19:42.360Z,36.25
2023-04-18T19:22:17.543Z,36.56
2023-04-18T19:24:53.653Z,36.35
2023-04-18T19:27:27.324Z,37.02
2023-04-18T19:29:58.398Z,37.04
2023-04-18T19:32:33.956Z,36.96
2023-04-18T19:35:10.980Z,37.22
2023-04-18T19:37:43.529Z,36.94
2023-04-18T19:40:18.514Z,36.76
2023-04-18T19:42:54.719Z,36.76
2023-04-18T19:45:29.598Z,36.53
2023-04-18T19:48:05.217Z,36.86
2023-04-18T19:50:42.267Z,36.80
2023-04-18T19:53:22.444Z,37.01
2023-04-18T19:55:51.818Z,36.88
2023-04-18T19:58:38.822Z,36.63
2023-04-18T20:01:10.088Z,36.87
2023-04-18T20:03:41.421Z,36.96
2023-04-18T20:06:27.983Z,36.84
2023-04-18T20:09:04.826Z,37.25
2023-04-18T20:11:39.585Z,37.38
2023-04-18T20:14:11.077Z,37.57
2023-04-18T20:17:05.483Z,37.38
2023-04-18T20:19:40.396Z,37.34
2023-04-18T20:29:30.927Z,38.00
2023-04-18T20:32:06.649Z,38.12
2023-04-18T20:34:37.912Z,38.21
2023-04-18T20:37:12.171Z,38.55
2023-04-18T20:39:48.978Z,38.34
2023-04-18T20:42:20.375Z,38.54
2023-04-18T20:44:51.004Z,38.66
2023-04-18T20:47:30.770Z,38.69
2023-04-18T20:50:09.404Z,38.61
2023-04-18T20:52:43.565Z,38.51
2023-04-18T20:55:23.900Z,38.67
2023-04-18T20:58:07.121Z,38.70
2023-04-18T21:00:48.887Z,38.82
2023-04-18T21:03:34.242Z,38.79
2023-04-18T21:06:14.112Z,38.91
2023-04-18T21:08:43.295Z,39.28
2023-04-18T21:11:22.110Z,39.14
2023-04-18T21:13:54.069Z,39.63
2023-04-18T21:16:24.193Z,39.75
2023-04-18T21:18:52.638Z,39.60
2023-04-18T21:21:24.313Z,39.97
2023-04-18T21:23:52.925Z,39.74
2023-04-18T21:26:22.215Z,39.82
2023-04-18T21:28:57.888Z,40.40
2023-04-18T21:31:27.042Z,40.15
2023-04-18T21:33:55.941Z,40.53
2023-04-18T21:36:25.170Z,40.38
2023-04-18T21:38:54.104Z,40.35
2023-04-18T21:41:24.331Z,40.38
2023-04-18T21:43:52.954Z,40.68
2023-04-18T21:46:21.820Z,40.59
2023-04-18T21:48:50.656Z,40.91
2023-04-18T21:51:19.347Z,41.15
2023-04-18T21:53:48.180Z,41.06
2023-04-18T21:56:17.480Z,41.12
2023-04-18T21:58:47.872Z,41.12
2023-04-18T22:01:16.551Z,41.35
2023-04-18T22:03:45.308Z,41.51
2023-04-18T22:06:14.097Z,41.40
2023-04-18T22:08:43.897Z,41.48
2023-04-18T22:11:13.867Z,41.45
2023-04-18T22:13:45.115Z,41.83
2023-04-18T22:16:15.383Z,41.45
2023-04-18T22:18:43.974Z,41.91
2023-04-18T22:21:12.529Z,41.56
2023-04-18T22:23:40.969Z,41.66
2023-04-18T22:26:09.246Z,42.11
2023-04-18T22:28:37.881Z,42.02
2023-04-18T22:31:07.043Z,42.01
2023-04-18T22:33:37.263Z,41.71
2023-04-18T22:36:06.598Z,41.86
2023-04-18T22:38:35.303Z,42.19
2023-04-18T22:41:03.991Z,42.28
2023-04-18T22:43:32.583Z,42.11
2023-04-18T22:46:01.391Z,42.33
2023-04-18T22:48:30.175Z,42.43
2023-04-18T22:51:01.995Z,42.57
2023-04-18T22:53:30.789Z,42.59
2023-04-18T22:55:59.325Z,42.82
2023-04-18T22:58:28.114Z,43.07
2023-04-18T23:00:56.743Z,43.29
2023-04-18T23:03:25.432Z,43.28
2023-04-18T23:05:54.243Z,43.57
2023-04-18T23:08:24.254Z,43.75
2023-04-18T23:10:52.234Z,43.98
2023-04-18T23:13:20.907Z,44.13
2023-04-18T23:15:49.586Z,44.21
2023-04-18T23:18:18.119Z,44.17
2023-04-18T23:20:48.416Z,44.38
2023-04-18T23:23:17.043Z,44.27
2023-04-18T23:25:47.124Z,44.46
2023-04-18T23:28:17.271Z,44.79
2023-04-18T23:30:45.523Z,44.89
2023-04-18T23:41:47.052Z,44.87
2023-04-18T23:44:17.108Z,45.11
2023-04-18T23:46:45.666Z,45.03
2023-04-18T23:49:14.291Z,44.73
2023-04-18T23:51:42.814Z,44.88
2023-04-18T23:54:11.394Z,44.82
2023-04-18T23:56:40.104Z,45.01
2023-04-18T23:59:08.765Z,45.00
